sensor_id;sensor_type;location;lat;lon;timestamp;pressure;altitude;pressure_sealevel;temperature;humidity
82555;BME280;72219;48.186;11.554;2023-12-20T00:00:25;95731.47;;;15.56;45.94
82555;BME280;72219;48.186;11.554;2023-12-20T00:02:51;95729.72;;;15.56;45.73
82555;BME280;72219;48.186;11.554;2023-12-20T00:05:16;95727.22;;;15.63;46.03
82555;BME280;72219;48.186;11.554;2023-12-20T00:07:41;95716.63;;;15.64;45.75
82555;BME280;72219;48.186;11.554;2023-12-20T00:10:07;95713.72;;;15.59;45.57
82555;BME280;72219;48.186;11.554;2023-12-20T00:12:33;95714.81;;;15.65;46.12
82555;BME280;72219;48.186;11.554;2023-12-20T00:14:58;95714.50;;;15.60;45.77
82555;BME280;72219;48.186;11.554;2023-12-20T00:17:24;95705.88;;;15.59;46.22
82555;BME280;72219;48.186;11.554;2023-12-20T00:19:49;95704.25;;;15.58;45.81
82555;BME280;72219;48.186;11.554;2023-12-20T00:22:14;95704.56;;;15.63;45.66
82555;BME280;72219;48.186;11.554;2023-12-20T00:24:41;95713.34;;;15.62;45.82
82555;BME280;72219;48.186;11.554;2023-12-20T00:27:07;95700.13;;;15.64;45.66
82555;BME280;72219;48.186;11.554;2023-12-20T00:29:32;95709.41;;;15.67;45.54
82555;BME280;72219;48.186;11.554;2023-12-20T00:31:59;95708.13;;;15.62;46.13
82555;BME280;72219;48.186;11.554;2023-12-20T00:34:24;95692.19;;;15.57;45.75
82555;BME280;72219;48.186;11.554;2023-12-20T00:36:49;95701.28;;;15.61;46.08
82555;BME280;72219;48.186;11.554;2023-12-20T00:39:15;95692.97;;;15.66;45.95
82555;BME280;72219;48.186;11.554;2023-12-20T00:41:42;95698.53;;;15.63;45.56
82555;BME280;72219;48.186;11.554;2023-12-20T00:44:07;95683.22;;;15.60;45.83
82555;BME280;72219;48.186;11.554;2023-12-20T00:46:32;95678.47;;;15.63;45.71
82555;BME280;72219;48.186;11.554;2023-12-20T00:48:58;95672.16;;;15.58;45.83
82555;BME280;72219;48.186;11.554;2023-12-20T00:51:24;95689.09;;;15.62;46.13
82555;BME280;72219;48.186;11.554;2023-12-20T00:53:51;95683.69;;;15.63;46.07
82555;BME280;72219;48.186;11.554;2023-12-20T00:56:20;95678.81;;;15.60;46.29
82555;BME280;72219;48.186;11.554;2023-12-20T00:58:46;95671.63;;;15.62;45.84
82555;BME280;72219;48.186;11.554;2023-12-20T01:01:12;95665.59;;;15.62;45.97
82555;BME280;72219;48.186;11.554;2023-12-20T01:03:38;95670.81;;;15.62;45.61
82555;BME280;72219;48.186;11.554;2023-12-20T01:06:05;95667.69;;;15.67;46.01
82555;BME280;72219;48.186;11.554;2023-12-20T01:08:31;95667.38;;;15.61;45.91
82555;BME280;72219;48.186;11.554;2023-12-20T01:10:56;95652.34;;;15.72;45.87
82555;BME280;72219;48.186;11.554;2023-12-20T01:13:21;95656.63;;;15.64;46.13
82555;BME280;72219;48.186;11.554;2023-12-20T01:15:47;95642.00;;;15.55;46.13
82555;BME280;72219;48.186;11.554;2023-12-20T01:18:13;95632.91;;;15.51;45.92
82555;BME280;72219;48.186;11.554;2023-12-20T01:20:38;95650.94;;;15.61;46.23
82555;BME280;72219;48.186;11.554;2023-12-20T01:23:04;95662.81;;;15.63;45.94
82555;BME280;72219;48.186;11.554;2023-12-20T01:25:29;95659.56;;;15.61;46.04
82555;BME280;72219;48.186;11.554;2023-12-20T01:27:54;95651.59;;;15.55;45.84
82555;BME280;72219;48.186;11.554;2023-12-20T01:30:20;95656.16;;;15.61;46.50
82555;BME280;72219;48.186;11.554;2023-12-20T01:32:45;95655.00;;;15.63;45.87
82555;BME280;72219;48.186;11.554;2023-12-20T01:35:11;95647.16;;;15.63;45.85
82555;BME280;72219;48.186;11.554;2023-12-20T01:37:37;95637.09;;;15.60;45.71
82555;BME280;72219;48.186;11.554;2023-12-20T01:40:03;95633.16;;;15.64;45.71
82555;BME280;72219;48.186;11.554;2023-12-20T01:42:29;95632.84;;;15.59;45.89
82555;BME280;72219;48.186;11.554;2023-12-20T01:44:54;95622.25;;;15.61;46.14
82555;BME280;72219;48.186;11.554;2023-12-20T01:47:20;95629.44;;;15.59;46.44
82555;BME280;72219;48.186;11.554;2023-12-20T01:49:46;95622.25;;;15.61;46.05
82555;BME280;72219;48.186;11.554;2023-12-20T01:52:12;95626.47;;;15.62;45.75
82555;BME280;72219;48.186;11.554;2023-12-20T01:54:38;95615.22;;;15.61;45.95
82555;BME280;72219;48.186;11.554;2023-12-20T01:57:05;95616.69;;;15.64;45.61
82555;BME280;72219;48.186;11.554;2023-12-20T01:59:33;95609.03;;;15.62;45.68
82555;BME280;72219;48.186;11.554;2023-12-20T02:01:59;95591.47;;;15.56;45.67
82555;BME280;72219;48.186;11.554;2023-12-20T02:04:25;95594.88;;;15.57;45.71
82555;BME280;72219;48.186;11.554;2023-12-20T02:06:52;95595.19;;;15.62;46.07
82555;BME280;72219;48.186;11.554;2023-12-20T02:09:18;95577.91;;;15.61;46.15
82555;BME280;72219;48.186;11.554;2023-12-20T02:11:43;95577.91;;;15.61;46.16
82555;BME280;72219;48.186;11.554;2023-12-20T02:14:09;95564.41;;;15.57;46.20
82555;BME280;72219;48.186;11.554;2023-12-20T02:16:34;95558.84;;;15.60;45.70
82555;BME280;72219;48.186;11.554;2023-12-20T02:19:01;95574.16;;;15.63;45.66
82555;BME280;72219;48.186;11.554;2023-12-20T02:21:31;95570.88;;;15.61;45.83
82555;BME280;72219;48.186;11.554;2023-12-20T02:23:58;95567.28;;;15.62;45.68
82555;BME280;72219;48.186;11.554;2023-12-20T02:26:24;95561.47;;;15.60;45.96
82555;BME280;72219;48.186;11.554;2023-12-20T02:28:49;95564.19;;;15.67;45.91
82555;BME280;72219;48.186;11.554;2023-12-20T02:31:15;95576.88;;;15.70;45.89
82555;BME280;72219;48.186;11.554;2023-12-20T02:33:40;95570.56;;;15.64;45.77
82555;BME280;72219;48.186;11.554;2023-12-20T02:36:07;95558.03;;;15.60;46.03
82555;BME280;72219;48.186;11.554;2023-12-20T02:38:32;95562.91;;;15.63;45.72
82555;BME280;72219;48.186;11.554;2023-12-20T02:41:00;95558.50;;;15.63;46.07
82555;BME280;72219;48.186;11.554;2023-12-20T02:43:25;95540.13;;;15.57;45.98
82555;BME280;72219;48.186;11.554;2023-12-20T02:45:50;95544.81;;;15.61;46.07
82555;BME280;72219;48.186;11.554;2023-12-20T02:48:16;95526.59;;;15.53;45.94
82555;BME280;72219;48.186;11.554;2023-12-20T02:50:41;95539.69;;;15.68;45.58
82555;BME280;72219;48.186;11.554;2023-12-20T02:53:07;95539.44;;;15.63;45.76
82555;BME280;72219;48.186;11.554;2023-12-20T02:55:33;95539.75;;;15.60;46.31
82555;BME280;72219;48.186;11.554;2023-12-20T02:57:58;95540.59;;;15.60;46.04
82555;BME280;72219;48.186;11.554;2023-12-20T03:00:24;95536.00;;;15.62;46.01
82555;BME280;72219;48.186;11.554;2023-12-20T03:02:49;95541.69;;;15.66;45.78
82555;BME280;72219;48.186;11.554;2023-12-20T03:05:15;95546.72;;;15.68;45.67
82555;BME280;72219;48.186;11.554;2023-12-20T03:07:40;95543.31;;;15.67;46.07
82555;BME280;72219;48.186;11.554;2023-12-20T03:10:06;95550.03;;;15.61;45.69
82555;BME280;72219;48.186;11.554;2023-12-20T03:12:32;95548.72;;;15.66;45.56
82555;BME280;72219;48.186;11.554;2023-12-20T03:14:58;95557.63;;;15.71;45.75
82555;BME280;72219;48.186;11.554;2023-12-20T03:17:23;95540.59;;;15.60;45.76
82555;BME280;72219;48.186;11.554;2023-12-20T03:19:48;95553.75;;;15.67;45.57
82555;BME280;72219;48.186;11.554;2023-12-20T03:22:17;95549.50;;;15.66;45.59
82555;BME280;72219;48.186;11.554;2023-12-20T03:24:42;95545.75;;;15.69;45.52
82555;BME280;72219;48.186;11.554;2023-12-20T03:27:07;95547.09;;;15.64;45.77
82555;BME280;72219;48.186;11.554;2023-12-20T03:29:33;95559.28;;;15.64;45.55
82555;BME280;72219;48.186;11.554;2023-12-20T03:31:58;95558.97;;;15.67;45.70
82555;BME280;72219;48.186;11.554;2023-12-20T03:34:24;95556.41;;;15.59;45.58
82555;BME280;72219;48.186;11.554;2023-12-20T03:36:50;95573.50;;;15.61;45.97
82555;BME280;72219;48.186;11.554;2023-12-20T03:39:16;95568.28;;;15.61;45.73
82555;BME280;72219;48.186;11.554;2023-12-20T03:41:41;95579.34;;;15.63;45.74
82555;BME280;72219;48.186;11.554;2023-12-20T03:44:07;95582.50;;;15.59;46.03
82555;BME280;72219;48.186;11.554;2023-12-20T03:46:33;95578.94;;;15.52;45.90
82555;BME280;72219;48.186;11.554;2023-12-20T03:48:59;95604.00;;;15.61;46.09
82555;BME280;72219;48.186;11.554;2023-12-20T03:51:24;95598.28;;;15.66;45.68
82555;BME280;72219;48.186;11.554;2023-12-20T03:53:49;95599.44;;;15.55;45.75
82555;BME280;72219;48.186;11.554;2023-12-20T03:56:16;95609.44;;;15.51;45.72
82555;BME280;72219;48.186;11.554;2023-12-20T03:58:41;95607.44;;;15.53;46.24
82555;BME280;72219;48.186;11.554;2023-12-20T04:01:10;95601.56;;;15.59;45.68
82555;BME280;72219;48.186;11.554;2023-12-20T04:03:39;95604.16;;;15.59;45.56
82555;BME280;72219;48.186;11.554;2023-12-20T04:06:05;95605.16;;;15.58;46.11
82555;BME280;72219;48.186;11.554;2023-12-20T04:08:31;95597.69;;;15.55;46.01
82555;BME280;72219;48.186;11.554;2023-12-20T04:10:56;95610.19;;;15.60;45.60
82555;BME280;72219;48.186;11.554;2023-12-20T04:13:22;95602.06;;;15.55;45.98
82555;BME280;72219;48.186;11.554;2023-12-20T04:15:48;95614.31;;;15.54;45.75
82555;BME280;72219;48.186;11.554;2023-12-20T04:18:15;95600.97;;;15.49;45.64
82555;BME280;72219;48.186;11.554;2023-12-20T04:20:40;95605.78;;;15.60;45.67
82555;BME280;72219;48.186;11.554;2023-12-20T04:23:06;95592.09;;;15.58;45.79
82555;BME280;72219;48.186;11.554;2023-12-20T04:25:31;95596.16;;;15.61;45.86
82555;BME280;72219;48.186;11.554;2023-12-20T04:27:57;95589.84;;;15.55;45.64
82555;BME280;72219;48.186;11.554;2023-12-20T04:30:22;95579.78;;;15.52;45.86
82555;BME280;72219;48.186;11.554;2023-12-20T04:32:48;95586.88;;;15.58;45.85
82555;BME280;72219;48.186;11.554;2023-12-20T04:35:13;95599.94;;;15.58;45.77
82555;BME280;72219;48.186;11.554;2023-12-20T04:37:40;95592.47;;;15.55;46.06
82555;BME280;72219;48.186;11.554;2023-12-20T04:40:05;95601.09;;;15.56;45.97
82555;BME280;72219;48.186;11.554;2023-12-20T04:42:31;95583.72;;;15.48;45.65
82555;BME280;72219;48.186;11.554;2023-12-20T04:44:56;95594.16;;;15.48;45.90
82555;BME280;72219;48.186;11.554;2023-12-20T04:47:22;95612.41;;;15.48;46.24
82555;BME280;72219;48.186;11.554;2023-12-20T04:49:47;95620.50;;;15.53;46.20
82555;BME280;72219;48.186;11.554;2023-12-20T04:52:14;95622.66;;;15.50;45.67
82555;BME280;72219;48.186;11.554;2023-12-20T04:54:39;95636.97;;;15.54;46.07
82555;BME280;72219;48.186;11.554;2023-12-20T04:57:05;95639.91;;;15.51;45.96
82555;BME280;72219;48.186;11.554;2023-12-20T04:59:30;95621.06;;;15.40;45.56
82555;BME280;72219;48.186;11.554;2023-12-20T05:01:55;95642.19;;;15.54;45.75
82555;BME280;72219;48.186;11.554;2023-12-20T05:04:21;95637.78;;;15.54;46.00
82555;BME280;72219;48.186;11.554;2023-12-20T05:06:46;95631.94;;;15.44;45.86
82555;BME280;72219;48.186;11.554;2023-12-20T05:09:11;95646.13;;;15.50;45.85
82555;BME280;72219;48.186;11.554;2023-12-20T05:11:37;95647.72;;;15.51;45.91
82555;BME280;72219;48.186;11.554;2023-12-20T05:14:05;95650.06;;;15.45;46.28
82555;BME280;72219;48.186;11.554;2023-12-20T05:16:30;95647.56;;;15.52;45.73
82555;BME280;72219;48.186;11.554;2023-12-20T05:18:55;95649.75;;;15.40;45.99
82555;BME280;72219;48.186;11.554;2023-12-20T05:21:22;95659.47;;;15.46;46.11
82555;BME280;72219;48.186;11.554;2023-12-20T05:23:48;95657.69;;;15.47;45.86
82555;BME280;72219;48.186;11.554;2023-12-20T05:26:13;95646.31;;;15.40;45.81
82555;BME280;72219;48.186;11.554;2023-12-20T05:28:38;95654.13;;;15.40;46.44
82555;BME280;72219;48.186;11.554;2023-12-20T05:31:04;95661.50;;;15.36;46.37
82555;BME280;72219;48.186;11.554;2023-12-20T05:33:29;95669.28;;;15.44;46.28
82555;BME280;72219;48.186;11.554;2023-12-20T05:35:54;95654.19;;;15.31;46.34
82555;BME280;72219;48.186;11.554;2023-12-20T05:38:20;95669.16;;;15.38;46.15
82555;BME280;72219;48.186;11.554;2023-12-20T05:40:45;95678.44;;;15.40;46.30
82555;BME280;72219;48.186;11.554;2023-12-20T05:43:11;95663.41;;;15.42;46.39
82555;BME280;72219;48.186;11.554;2023-12-20T05:45:36;95677.25;;;15.51;45.79
82555;BME280;72219;48.186;11.554;2023-12-20T05:48:01;95691.28;;;15.42;46.48
82555;BME280;72219;48.186;11.554;2023-12-20T05:50:27;95688.50;;;15.43;46.33
82555;BME280;72219;48.186;11.554;2023-12-20T05:52:52;95670.63;;;15.40;46.20
82555;BME280;72219;48.186;11.554;2023-12-20T05:55:19;95679.59;;;15.38;45.53
82555;BME280;72219;48.186;11.554;2023-12-20T05:57:45;95695.72;;;15.33;46.39
82555;BME280;72219;48.186;11.554;2023-12-20T06:00:11;95714.94;;;15.40;46.21
82555;BME280;72219;48.186;11.554;2023-12-20T06:02:37;95703.22;;;15.36;46.21
82555;BME280;72219;48.186;11.554;2023-12-20T06:05:04;95694.13;;;15.32;46.19
82555;BME280;72219;48.186;11.554;2023-12-20T06:07:30;95706.13;;;15.41;46.04
82555;BME280;72219;48.186;11.554;2023-12-20T06:09:55;95719.84;;;15.35;46.37
82555;BME280;72219;48.186;11.554;2023-12-20T06:12:21;95712.81;;;15.36;46.10
82555;BME280;72219;48.186;11.554;2023-12-20T06:14:46;95719.03;;;15.35;46.10
82555;BME280;72219;48.186;11.554;2023-12-20T06:17:15;95724.88;;;15.37;46.11
82555;BME280;72219;48.186;11.554;2023-12-20T06:19:41;95716.75;;;15.31;46.36
82555;BME280;72219;48.186;11.554;2023-12-20T06:22:10;95722.44;;;15.35;46.51
82555;BME280;72219;48.186;11.554;2023-12-20T06:24:36;95724.41;;;15.33;46.19
82555;BME280;72219;48.186;11.554;2023-12-20T06:27:03;95728.19;;;15.30;46.19
82555;BME280;72219;48.186;11.554;2023-12-20T06:29:30;95722.97;;;15.30;46.09
82555;BME280;72219;48.186;11.554;2023-12-20T06:31:56;95727.22;;;15.23;45.96
82555;BME280;72219;48.186;11.554;2023-12-20T06:34:21;95735.19;;;15.22;46.27
82555;BME280;72219;48.186;11.554;2023-12-20T06:36:47;95744.44;;;15.33;46.40
82555;BME280;72219;48.186;11.554;2023-12-20T06:39:12;95749.66;;;15.33;46.18
82555;BME280;72219;48.186;11.554;2023-12-20T06:41:38;95732.09;;;15.18;46.41
82555;BME280;72219;48.186;11.554;2023-12-20T06:44:03;95738.91;;;15.27;46.35
82555;BME280;72219;48.186;11.554;2023-12-20T06:46:29;95746.88;;;15.34;46.07
82555;BME280;72219;48.186;11.554;2023-12-20T06:48:55;95749.00;;;15.39;46.15
82555;BME280;72219;48.186;11.554;2023-12-20T06:51:21;95751.63;;;15.39;46.71
82555;BME280;72219;48.186;11.554;2023-12-20T06:53:53;95751.94;;;15.36;46.50
82555;BME280;72219;48.186;11.554;2023-12-20T06:56:18;95743.16;;;15.28;46.11
82555;BME280;72219;48.186;11.554;2023-12-20T06:58:44;95735.81;;;15.32;45.90
82555;BME280;72219;48.186;11.554;2023-12-20T07:01:13;95750.94;;;15.37;45.95
82555;BME280;72219;48.186;11.554;2023-12-20T07:03:38;95764.16;;;15.35;46.17
82555;BME280;72219;48.186;11.554;2023-12-20T07:06:06;95792.31;;;15.40;46.36
82555;BME280;72219;48.186;11.554;2023-12-20T07:08:31;95785.19;;;15.34;46.29
82555;BME280;72219;48.186;11.554;2023-12-20T07:11:00;95777.72;;;15.30;45.89
82555;BME280;72219;48.186;11.554;2023-12-20T07:13:26;95798.72;;;15.37;46.57
82555;BME280;72219;48.186;11.554;2023-12-20T07:15:53;95797.56;;;15.31;46.46
82555;BME280;72219;48.186;11.554;2023-12-20T07:18:18;95798.72;;;15.37;46.59
82555;BME280;72219;48.186;11.554;2023-12-20T07:20:45;95796.09;;;15.37;46.01
82555;BME280;72219;48.186;11.554;2023-12-20T07:23:10;95795.13;;;15.30;46.24
82555;BME280;72219;48.186;11.554;2023-12-20T07:25:36;95813.34;;;15.38;46.40
82555;BME280;72219;48.186;11.554;2023-12-20T07:28:02;95803.59;;;15.40;46.15
82555;BME280;72219;48.186;11.554;2023-12-20T07:30:27;95796.44;;;15.26;46.52
82555;BME280;72219;48.186;11.554;2023-12-20T07:32:53;95805.22;;;15.33;46.15
82555;BME280;72219;48.186;11.554;2023-12-20T07:35:19;95807.50;;;15.36;45.98
82555;BME280;72219;48.186;11.554;2023-12-20T07:37:44;95809.16;;;15.37;46.06
82555;BME280;72219;48.186;11.554;2023-12-20T07:40:10;95813.53;;;15.37;45.85
82555;BME280;72219;48.186;11.554;2023-12-20T07:42:35;95796.09;;;15.37;46.18
82555;BME280;72219;48.186;11.554;2023-12-20T07:45:01;95818.09;;;15.43;45.95
82555;BME280;72219;48.186;11.554;2023-12-20T07:47:26;95809.94;;;15.38;46.12
82555;BME280;72219;48.186;11.554;2023-12-20T07:49:51;95820.00;;;15.49;45.97
82555;BME280;72219;48.186;11.554;2023-12-20T07:52:18;95826.38;;;15.46;46.07
82555;BME280;72219;48.186;11.554;2023-12-20T07:54:44;95810.56;;;15.40;46.04
82555;BME280;72219;48.186;11.554;2023-12-20T07:57:10;95822.47;;;15.42;45.93
82555;BME280;72219;48.186;11.554;2023-12-20T07:59:36;95828.53;;;15.43;46.42
82555;BME280;72219;48.186;11.554;2023-12-20T08:02:01;95825.25;;;15.41;46.23
82555;BME280;72219;48.186;11.554;2023-12-20T08:04:27;95828.69;;;15.41;46.27
82555;BME280;72219;48.186;11.554;2023-12-20T08:06:52;95834.38;;;15.37;46.12
82555;BME280;72219;48.186;11.554;2023-12-20T08:09:18;95836.66;;;15.40;46.13
82555;BME280;72219;48.186;11.554;2023-12-20T08:11:49;95846.91;;;15.50;46.18
82555;BME280;72219;48.186;11.554;2023-12-20T08:14:15;95842.34;;;15.43;46.29
82555;BME280;72219;48.186;11.554;2023-12-20T08:16:40;95848.72;;;15.41;45.95
82555;BME280;72219;48.186;11.554;2023-12-20T08:19:06;95846.09;;;15.41;46.18
82555;BME280;72219;48.186;11.554;2023-12-20T08:21:31;95842.53;;;15.42;45.89
82555;BME280;72219;48.186;11.554;2023-12-20T08:23:56;95842.88;;;15.39;46.57
82555;BME280;72219;48.186;11.554;2023-12-20T08:26:22;95848.38;;;15.52;46.86
82555;BME280;72219;48.186;11.554;2023-12-20T08:28:48;95846.56;;;15.61;47.25
82555;BME280;72219;48.186;11.554;2023-12-20T08:31:17;95844.13;;;15.59;46.78
82555;BME280;72219;48.186;11.554;2023-12-20T08:33:47;95852.44;;;15.63;46.79
82555;BME280;72219;48.186;11.554;2023-12-20T08:36:13;95843.78;;;15.62;47.06
82555;BME280;72219;48.186;11.554;2023-12-20T08:38:39;95845.38;;;15.72;47.28
82555;BME280;72219;48.186;11.554;2023-12-20T08:41:04;95852.56;;;15.70;46.89
82555;BME280;72219;48.186;11.554;2023-12-20T08:43:34;95847.66;;;15.75;46.79
82555;BME280;72219;48.186;11.554;2023-12-20T08:46:00;95848.31;;;15.77;47.10
82555;BME280;72219;48.186;11.554;2023-12-20T08:48:25;95849.44;;;15.83;46.85
82555;BME280;72219;48.186;11.554;2023-12-20T08:50:51;95858.56;;;15.87;47.02
82555;BME280;72219;48.186;11.554;2023-12-20T08:53:18;95846.34;;;15.87;46.49
82555;BME280;72219;48.186;11.554;2023-12-20T08:55:43;95844.38;;;15.89;46.81
82555;BME280;72219;48.186;11.554;2023-12-20T08:58:09;95854.47;;;15.92;47.07
82555;BME280;72219;48.186;11.554;2023-12-20T09:00:34;95850.53;;;15.96;46.76
82555;BME280;72219;48.186;11.554;2023-12-20T09:03:01;95851.81;;;16.01;46.60
82555;BME280;72219;48.186;11.554;2023-12-20T09:05:27;95851.00;;;16.00;46.94
82555;BME280;72219;48.186;11.554;2023-12-20T09:07:53;95851.81;;;16.01;46.67
82555;BME280;72219;48.186;11.554;2023-12-20T09:10:18;95848.53;;;16.07;46.61
82555;BME280;72219;48.186;11.554;2023-12-20T09:12:50;95856.38;;;16.07;46.78
82555;BME280;72219;48.186;11.554;2023-12-20T09:15:15;95842.69;;;16.05;46.31
82555;BME280;72219;48.186;11.554;2023-12-20T09:17:41;95855.53;;;16.14;46.50
82555;BME280;72219;48.186;11.554;2023-12-20T09:20:07;95845.13;;;16.06;46.58
82555;BME280;72219;48.186;11.554;2023-12-20T09:22:34;95843.72;;;15.95;46.66
82555;BME280;72219;48.186;11.554;2023-12-20T09:25:00;95851.16;;;16.07;47.06
82555;BME280;72219;48.186;11.554;2023-12-20T09:27:27;95852.28;;;16.04;47.24
82555;BME280;72219;48.186;11.554;2023-12-20T09:29:52;95837.81;;;15.93;47.43
82555;BME280;72219;48.186;11.554;2023-12-20T09:32:18;95854.91;;;16.04;47.18
82555;BME280;72219;48.186;11.554;2023-12-20T09:34:45;95855.75;;;16.05;46.78
82555;BME280;72219;48.186;11.554;2023-12-20T09:37:11;95853.75;;;16.07;47.46
82555;BME280;72219;48.186;11.554;2023-12-20T09:39:36;95853.94;;;16.05;47.28
82555;BME280;72219;48.186;11.554;2023-12-20T09:42:06;95860.63;;;16.08;47.67
82555;BME280;72219;48.186;11.554;2023-12-20T09:44:32;95858.94;;;16.15;47.32
82555;BME280;72219;48.186;11.554;2023-12-20T09:47:05;95842.69;;;16.05;47.68
82555;BME280;72219;48.186;11.554;2023-12-20T09:49:30;95856.31;;;16.15;48.00
82555;BME280;72219;48.186;11.554;2023-12-20T09:51:57;95836.16;;;16.09;47.50
82555;BME280;72219;48.186;11.554;2023-12-20T09:54:25;95851.41;;;16.20;47.74
82555;BME280;72219;48.186;11.554;2023-12-20T09:56:52;95851.28;;;16.13;47.64
82555;BME280;72219;48.186;11.554;2023-12-20T09:59:17;95848.81;;;16.20;47.35
82555;BME280;72219;48.186;11.554;2023-12-20T10:01:43;95851.72;;;16.25;47.60
82555;BME280;72219;48.186;11.554;2023-12-20T10:04:10;95834.41;;;16.24;47.28
82555;BME280;72219;48.186;11.554;2023-12-20T10:06:43;95831.25;;;16.37;47.29
82555;BME280;72219;48.186;11.554;2023-12-20T10:09:11;95837.75;;;16.41;46.57
82555;BME280;72219;48.186;11.554;2023-12-20T10:11:39;95839.09;;;16.37;46.66
82555;BME280;72219;48.186;11.554;2023-12-20T10:14:06;95836.81;;;16.34;46.55
82555;BME280;72219;48.186;11.554;2023-12-20T10:16:32;95831.75;;;16.33;46.91
82555;BME280;72219;48.186;11.554;2023-12-20T10:18:58;95836.19;;;16.32;46.50
82555;BME280;72219;48.186;11.554;2023-12-20T10:21:24;95814.22;;;16.18;46.56
82555;BME280;72219;48.186;11.554;2023-12-20T10:23:55;95826.72;;;16.31;46.23
82555;BME280;72219;48.186;11.554;2023-12-20T10:26:21;95833.94;;;16.52;45.65
82555;BME280;72219;48.186;11.554;2023-12-20T10:28:54;95828.84;;;16.59;45.36
82555;BME280;72219;48.186;11.554;2023-12-20T10:31:33;95826.38;;;16.57;45.67
82555;BME280;72219;48.186;11.554;2023-12-20T10:34:01;95827.75;;;16.45;45.78
82555;BME280;72219;48.186;11.554;2023-12-20T10:36:28;95836.47;;;16.37;46.23
82555;BME280;72219;48.186;11.554;2023-12-20T10:38:55;95815.78;;;16.27;45.95
82555;BME280;72219;48.186;11.554;2023-12-20T10:41:26;95819.72;;;16.23;46.05
82555;BME280;72219;48.186;11.554;2023-12-20T10:43:55;95815.00;;;16.27;46.06
82555;BME280;72219;48.186;11.554;2023-12-20T10:46:21;95808.34;;;16.16;46.29
82555;BME280;72219;48.186;11.554;2023-12-20T10:48:48;95813.59;;;16.16;46.31
82555;BME280;72219;48.186;11.554;2023-12-20T10:51:17;95810.31;;;16.14;46.18
82555;BME280;72219;48.186;11.554;2023-12-20T10:53:44;95810.03;;;16.09;46.63
82555;BME280;72219;48.186;11.554;2023-12-20T10:56:12;95812.66;;;16.09;46.56
82555;BME280;72219;48.186;11.554;2023-12-20T10:58:41;95803.69;;;16.03;46.26
82555;BME280;72219;48.186;11.554;2023-12-20T11:01:12;95805.66;;;16.01;46.55
82555;BME280;72219;48.186;11.554;2023-12-20T11:03:38;95785.81;;;15.92;46.70
82555;BME280;72219;48.186;11.554;2023-12-20T11:12:25;95805.81;;;16.08;46.25
82555;BME280;72219;48.186;11.554;2023-12-20T11:14:49;95799.75;;;16.07;46.09
82555;BME280;72219;48.186;11.554;2023-12-20T11:17:18;95804.16;;;16.07;46.29
82555;BME280;72219;48.186;11.554;2023-12-20T11:22:20;95804.47;;;16.12;46.32
82555;BME280;72219;48.186;11.554;2023-12-20T11:24:47;95795.72;;;16.05;46.29
82555;BME280;72219;48.186;11.554;2023-12-20T11:27:13;95795.34;;;16.08;46.56
82555;BME280;72219;48.186;11.554;2023-12-20T11:29:39;95774.69;;;15.98;46.10
82555;BME280;72219;48.186;11.554;2023-12-20T11:34:58;95766.81;;;16.06;45.94
82555;BME280;72219;48.186;11.554;2023-12-20T11:37:32;95773.63;;;16.16;46.06
82555;BME280;72219;48.186;11.554;2023-12-20T11:40:05;95765.38;;;16.27;45.72
82555;BME280;72219;48.186;11.554;2023-12-20T11:42:42;95759.25;;;16.20;45.81
82555;BME280;72219;48.186;11.554;2023-12-20T11:45:09;95765.91;;;16.22;45.79
82555;BME280;72219;48.186;11.554;2023-12-20T11:47:35;95765.19;;;16.28;45.93
82555;BME280;72219;48.186;11.554;2023-12-20T11:50:01;95762.78;;;16.27;45.76
82555;BME280;72219;48.186;11.554;2023-12-20T11:52:29;95758.47;;;16.34;45.63
82555;BME280;72219;48.186;11.554;2023-12-20T11:54:58;95750.63;;;16.34;45.64
82555;BME280;72219;48.186;11.554;2023-12-20T11:57:24;95753.72;;;16.38;45.33
82555;BME280;72219;48.186;11.554;2023-12-20T11:59:50;95750.44;;;16.36;45.17
82555;BME280;72219;48.186;11.554;2023-12-20T12:02:16;95750.25;;;16.45;45.46
82555;BME280;72219;48.186;11.554;2023-12-20T12:04:42;95737.06;;;16.39;45.27
82555;BME280;72219;48.186;11.554;2023-12-20T12:07:07;95749.09;;;16.48;45.05
82555;BME280;72219;48.186;11.554;2023-12-20T12:09:34;95754.94;;;16.50;44.72
82555;BME280;72219;48.186;11.554;2023-12-20T12:12:01;95743.28;;;16.38;44.90
82555;BME280;72219;48.186;11.554;2023-12-20T12:14:28;95738.16;;;16.44;45.14
82555;BME280;72219;48.186;11.554;2023-12-20T12:16:54;95746.00;;;16.44;45.32
82555;BME280;72219;48.186;11.554;2023-12-20T12:19:21;95749.59;;;16.43;45.46
82555;BME280;72219;48.186;11.554;2023-12-20T12:21:46;95745.94;;;16.29;45.76
82555;BME280;72219;48.186;11.554;2023-12-20T12:24:12;95741.81;;;16.12;46.19
82555;BME280;72219;48.186;11.554;2023-12-20T12:26:37;95736.25;;;16.15;45.88
82555;BME280;72219;48.186;11.554;2023-12-20T12:29:03;95741.16;;;16.10;46.14
82555;BME280;72219;48.186;11.554;2023-12-20T12:31:28;95731.09;;;16.07;46.38
82555;BME280;72219;48.186;11.554;2023-12-20T12:33:53;95735.78;;;16.11;45.51
82555;BME280;72219;48.186;11.554;2023-12-20T12:36:19;95731.63;;;16.02;45.95
82555;BME280;72219;48.186;11.554;2023-12-20T12:38:44;95736.72;;;15.95;46.52
82555;BME280;72219;48.186;11.554;2023-12-20T12:41:12;95737.34;;;15.97;45.99
82555;BME280;72219;48.186;11.554;2023-12-20T12:43:38;95725.91;;;15.98;45.68
82555;BME280;72219;48.186;11.554;2023-12-20T12:46:04;95730.47;;;15.96;46.29
82555;BME280;72219;48.186;11.554;2023-12-20T12:48:29;95722.94;;;16.02;46.04
82555;BME280;72219;48.186;11.554;2023-12-20T12:50:54;95729.06;;;15.94;45.54
82555;BME280;72219;48.186;11.554;2023-12-20T12:53:24;95729.69;;;15.96;45.43
82555;BME280;72219;48.186;11.554;2023-12-20T12:55:49;95740.59;;;16.00;45.36